Time;durP1;ratioP1;P1;durP2;ratioP2;P2;SDS_P1;SDS_P2;PMS_P1;PMS_P2;Temp;Humidity;BMP_temperature;BMP_pressure;BME280_temperature;BME280_humidity;BME280_pressure;Samples;Min_cycle;Max_cycle;Signal;HPM_P1;HPM_P2
2022/11/06 00:02:02;;;;;;;5.50;4.60;;;7.10;99.90;;;6.81;93.22;101370.31;4934624;29;20205;-69
2022/11/06 00:04:31;;;;;;;9.35;5.32;;;7.00;99.90;;;6.67;94.24;101367.44;4921992;29;20182;-69
2022/11/06 00:06:59;;;;;;;12.30;5.50;;;6.90;99.90;;;6.79;93.78;101372.31;4899810;29;20241;-69
2022/11/06 00:09:28;;;;;;;11.00;4.65;;;6.90;99.90;;;6.73;94.69;101356.03;4907407;29;20676;-69
2022/11/06 00:11:57;;;;;;;12.70;4.95;;;6.90;99.90;;;6.69;95.01;101357.34;4916321;29;20527;-68
2022/11/06 00:14:26;;;;;;;14.27;5.95;;;6.80;99.90;;;6.64;94.66;101362.38;4899291;29;20300;-69
2022/11/06 00:16:56;;;;;;;9.45;5.55;;;6.80;99.90;;;6.48;95.58;101361.34;4916036;29;20735;-67
2022/11/06 00:19:26;;;;;;;11.02;5.13;;;6.70;99.90;;;6.49;95.79;101352.25;4900772;29;20260;-69
2022/11/06 00:21:55;;;;;;;7.93;5.15;;;6.70;99.90;;;6.47;96.24;101359.66;4896404;29;20661;-69
2022/11/06 00:24:23;;;;;;;11.30;5.47;;;6.60;99.90;;;6.45;95.95;101361.66;4938559;23;20254;-69
2022/11/06 00:26:52;;;;;;;10.98;5.25;;;6.60;99.90;;;6.33;96.45;101357.63;4954028;28;20220;-70
2022/11/06 00:29:22;;;;;;;6.78;6.03;;;6.60;99.90;;;6.40;96.39;101355.94;4933645;28;20193;-70
2022/11/06 00:31:51;;;;;;;11.65;5.55;;;6.60;99.90;;;6.49;96.10;101365.69;4932793;29;20844;-70
2022/11/06 00:34:21;;;;;;;12.50;5.72;;;6.60;99.90;;;6.46;95.77;101365.19;4932950;29;20188;-69
2022/11/06 00:36:50;;;;;;;10.48;5.47;;;6.60;99.90;;;6.51;95.55;101366.41;4946520;29;20218;-71
2022/11/06 00:39:19;;;;;;;13.23;6.70;;;6.60;99.90;;;6.49;95.25;101365.69;4951885;28;20188;-70
2022/11/06 00:41:48;;;;;;;10.63;5.38;;;6.60;99.90;;;6.46;95.60;101360.66;4950318;28;20292;-70
2022/11/06 00:44:17;;;;;;;7.75;6.20;;;6.60;99.90;;;6.38;95.37;101357.97;4938308;29;20206;-70
2022/11/06 00:46:45;;;;;;;7.10;4.50;;;6.50;99.90;;;6.30;96.09;101354.38;4938403;29;20271;-70
2022/11/06 00:49:14;;;;;;;7.95;5.38;;;6.50;99.90;;;6.32;96.67;101355.91;4950979;28;20202;-69
2022/11/06 00:51:45;;;;;;;6.68;5.22;;;6.40;99.90;;;6.25;96.57;101357.56;4951311;28;20188;-69
2022/11/06 00:54:14;;;;;;;8.48;5.75;;;6.40;99.90;;;6.29;96.40;101367.00;4945081;29;20271;-69
2022/11/06 00:56:43;;;;;;;9.90;6.28;;;6.40;99.90;;;6.22;96.62;101357.91;4943048;28;20315;-69
2022/11/06 00:59:13;;;;;;;8.43;5.78;;;6.40;99.90;;;6.27;96.79;101360.94;4951269;28;20200;-69
2022/11/06 01:01:45;;;;;;;12.10;6.05;;;6.40;99.90;;;6.22;96.83;101362.44;4952326;29;20223;-71
2022/11/06 01:04:18;;;;;;;10.18;6.28;;;6.40;99.90;;;6.20;97.19;101365.28;4943259;28;20283;-71
2022/11/06 01:06:51;;;;;;;10.65;5.75;;;6.40;99.90;;;6.30;96.79;101359.75;4950115;29;20218;-70
2022/11/06 01:09:24;;;;;;;11.13;7.00;;;6.40;99.90;;;6.27;97.13;101358.25;4955310;28;20192;-68
2022/11/06 01:11:56;;;;;;;16.88;6.20;;;6.30;99.90;;;6.26;96.56;101361.09;4955758;28;20212;-70
2022/11/06 01:14:43;;;;;;;8.60;6.65;;;6.40;99.90;;;6.32;96.60;101357.75;4955242;28;20690;-69
2022/11/06 01:17:13;;;;;;;10.48;6.95;;;6.40;99.90;;;6.22;96.42;101352.53;4955304;28;20757;-69
2022/11/06 01:19:42;;;;;;;15.57;5.22;;;6.30;99.90;;;6.21;96.65;101356.22;4954746;28;20224;-70
2022/11/06 01:22:12;;;;;;;10.98;6.78;;;6.40;99.90;;;6.08;97.49;101347.78;4954535;28;20200;-70
2022/11/06 01:24:41;;;;;;;11.73;5.95;;;6.20;99.90;;;6.20;96.64;101351.84;4953324;28;20641;-69
2022/11/06 01:27:10;;;;;;;13.13;5.53;;;6.30;99.90;;;6.07;96.96;101343.41;4942893;28;20216;-70
2022/11/06 01:29:54;;;;;;;9.18;5.55;;;6.20;99.90;;;5.93;97.93;101342.16;4950778;29;20667;-69
2022/11/06 01:32:23;;;;;;;7.93;5.88;;;6.10;99.90;;;6.02;97.74;101334.97;4940661;28;20245;-70
2022/11/06 01:34:52;;;;;;;6.80;5.22;;;6.20;99.90;;;5.89;98.12;101334.59;4957820;28;20195;-72
2022/11/06 01:37:22;;;;;;;10.63;5.30;;;6.10;99.90;;;6.01;97.47;101327.91;4949668;28;20212;-69
2022/11/06 01:39:51;;;;;;;22.63;6.78;;;6.20;99.90;;;6.02;97.71;101325.06;4948646;28;20204;-69
2022/11/06 01:42:21;;;;;;;8.32;6.57;;;6.10;99.90;;;5.96;97.98;101332.94;4950895;28;20200;-71
2022/11/06 01:45:35;;;;;;;10.13;6.00;;;6.10;99.90;;;6.11;97.19;101325.94;4939879;28;20205;-69
2022/11/06 01:48:05;;;;;;;8.80;5.55;;;6.20;99.90;;;5.95;97.91;101317.84;4937031;29;20193;-69
2022/11/06 01:50:35;;;;;;;13.93;6.22;;;6.10;99.90;;;5.88;98.34;101317.63;4949815;28;20215;-71
2022/11/06 01:53:05;;;;;;;10.43;5.45;;;6.10;99.90;;;5.81;98.65;101311.19;4954564;28;20196;-69
2022/11/06 01:55:40;;;;;;;9.90;5.78;;;6.00;99.90;;;5.95;98.58;101318.69;4950704;28;20216;-70
2022/11/06 01:58:15;;;;;;;11.43;6.00;;;6.10;99.90;;;6.04;97.26;101314.19;4952610;28;20188;-69
2022/11/06 02:00:46;;;;;;;12.68;6.35;;;6.10;99.90;;;5.94;97.73;101310.78;4948573;29;20215;-69
2022/11/06 02:03:16;;;;;;;10.82;5.80;;;6.10;99.90;;;6.05;97.45;101305.13;4954718;28;20226;-70
2022/11/06 02:05:45;;;;;;;12.10;5.85;;;6.10;99.90;;;5.96;97.79;101303.38;4956445;28;20219;-70
2022/11/06 02:08:21;;;;;;;11.70;5.82;;;6.10;99.90;;;5.89;97.87;101292.47;4953768;28;20193;-69
2022/11/06 02:10:50;;;;;;;9.57;6.45;;;6.10;99.90;;;5.87;97.94;101298.97;4954435;28;20316;-70
2022/11/06 02:13:41;;;;;;;12.98;6.32;;;6.00;99.90;;;5.96;98.16;101292.63;4952970;28;20207;-69
2022/11/06 02:16:26;;;;;;;9.80;6.22;;;6.00;99.90;;;6.10;96.88;101294.69;4952619;28;20689;-69
2022/11/06 02:19:25;;;;;;;11.55;6.80;;;6.10;99.90;;;5.98;97.00;101296.00;4938877;29;20546;-69
2022/11/06 02:22:21;;;;;;;12.23;6.85;;;6.10;99.90;;;5.94;96.92;101289.28;4947245;29;20246;-69
2022/11/06 02:25:21;;;;;;;17.88;6.00;;;6.10;99.90;;;6.03;96.35;101293.69;4954315;28;20312;-68
2022/11/06 02:28:02;;;;;;;17.15;6.82;;;6.10;99.90;;;5.92;96.46;101291.28;4952918;29;20381;-68
2022/11/06 02:30:41;;;;;;;8.07;5.82;;;6.10;99.90;;;5.99;96.40;101286.97;4951910;29;20879;-69
2022/11/06 02:33:16;;;;;;;17.48;5.95;;;6.10;99.90;;;5.79;96.97;101288.19;4955734;28;20180;-69
2022/11/06 02:35:52;;;;;;;7.75;6.03;;;6.00;99.90;;;5.86;96.80;101281.16;4947651;29;20761;-68
2022/11/06 02:38:28;;;;;;;9.60;5.30;;;6.00;99.90;;;5.66;97.54;101281.41;4954572;28;20180;-68
2022/11/06 02:41:04;;;;;;;10.77;5.93;;;5.90;99.90;;;5.64;98.35;101283.44;4953791;28;20192;-70
2022/11/06 02:43:43;;;;;;;10.75;7.13;;;5.80;99.90;;;5.82;97.78;101279.78;4954309;28;20210;-70
2022/11/06 02:46:18;;;;;;;10.27;6.95;;;5.90;99.90;;;5.91;97.35;101290.44;4954149;28;20730;-69
2022/11/06 02:48:56;;;;;;;9.15;6.60;;;6.00;99.90;;;5.94;97.17;101289.28;4953819;28;20191;-70
2022/11/06 02:51:31;;;;;;;15.68;7.13;;;6.00;99.90;;;5.95;97.51;101285.59;4953991;28;20200;-69
2022/11/06 02:54:05;;;;;;;11.88;6.88;;;6.00;99.90;;;5.88;97.57;101285.41;4935107;29;20173;-68
2022/11/06 02:56:42;;;;;;;11.63;7.63;;;6.00;99.90;;;5.93;97.38;101283.06;4944175;29;20215;-70
2022/11/06 02:59:21;;;;;;;10.98;7.28;;;6.00;99.90;;;6.12;96.11;101276.56;4943190;29;20290;-68
2022/11/06 03:01:55;;;;;;;7.32;5.38;;;6.10;99.90;;;6.01;96.68;101274.19;4953142;28;20187;-71
2022/11/06 03:04:30;;;;;;;11.90;6.63;;;6.10;99.90;;;6.24;95.90;101279.81;4949082;28;20215;-68
2022/11/06 03:07:08;;;;;;;14.82;7.28;;;6.20;99.90;;;6.14;95.22;101284.47;4953535;28;20243;-69
2022/11/06 03:09:38;;;;;;;8.30;7.32;;;6.20;99.90;;;6.16;95.01;101283.28;4949108;29;20203;-70
2022/11/06 03:12:21;;;;;;;11.50;6.18;;;6.20;99.90;;;6.32;94.91;101277.97;4952539;28;20192;-68
2022/11/06 03:14:59;;;;;;;7.55;5.88;;;6.30;99.90;;;6.21;94.55;101280.13;4948657;28;20191;-70
2022/11/06 03:17:42;;;;;;;9.63;6.10;;;6.30;99.90;;;6.27;93.93;101277.63;4950267;28;20212;-69
2022/11/06 03:20:23;;;;;;;10.55;6.07;;;6.30;99.90;;;6.16;94.60;101269.88;4947005;29;20189;-68
2022/11/06 03:23:03;;;;;;;8.60;6.68;;;6.20;99.90;;;6.04;95.17;101277.41;4939798;29;20203;-69
2022/11/06 03:25:40;;;;;;;14.02;6.32;;;6.20;99.90;;;5.88;95.68;101273.81;5067875;23;20230;-70
2022/11/06 03:28:16;;;;;;;8.95;6.28;;;6.10;99.90;;;5.86;96.29;101281.16;4914483;29;20643;-69
2022/11/06 03:30:54;;;;;;;8.68;6.50;;;6.00;99.90;;;5.88;96.17;101273.81;4903463;29;20223;-69
2022/11/06 03:33:33;;;;;;;13.30;6.38;;;6.00;99.90;;;5.76;96.64;101275.91;4917493;29;20604;-68
2022/11/06 03:36:10;;;;;;;13.95;6.82;;;5.90;99.90;;;5.57;97.74;101268.94;4920449;29;20265;-70
2022/11/06 03:38:46;;;;;;;10.52;6.78;;;5.80;99.90;;;5.69;98.05;101270.38;4919963;29;20180;-69
2022/11/06 03:41:26;;;;;;;9.35;7.30;;;5.80;99.90;;;5.66;98.33;101267.97;4895440;29;20198;-68
2022/11/06 03:44:01;;;;;;;14.75;7.40;;;5.70;99.90;;;5.58;98.34;101267.94;4883645;29;20198;-71
2022/11/06 03:46:37;;;;;;;17.92;7.72;;;5.70;99.90;;;5.41;99.28;101268.03;4900077;29;20215;-70
2022/11/06 03:49:14;;;;;;;23.35;7.07;;;5.60;99.90;;;5.44;99.84;101260.50;4888623;29;20542;-69
2022/11/06 03:51:50;;;;;;;9.18;6.03;;;5.60;99.90;;;5.36;100.00;101257.78;4877804;29;20198;-70
2022/11/06 03:54:25;;;;;;;25.35;7.75;;;5.60;99.90;;;5.43;100.00;101255.28;4877388;29;20203;-70
2022/11/06 03:57:00;;;;;;;17.05;7.07;;;5.60;99.90;;;5.51;99.51;101263.41;4890743;29;20218;-69
2022/11/06 03:59:38;;;;;;;9.15;7.40;;;5.60;99.90;;;5.45;99.47;101251.44;4891626;29;20682;-69
2022/11/06 04:02:09;;;;;;;14.98;5.88;;;5.60;99.90;;;5.38;99.91;101253.09;4900162;29;20189;-70
2022/11/06 04:04:45;;;;;;;7.18;5.97;;;5.60;99.90;;;5.36;100.00;101267.69;4915224;29;20197;-69
2022/11/06 04:07:19;;;;;;;9.55;6.15;;;5.50;99.90;;;5.34;100.00;101259.78;4887425;29;20230;-69
2022/11/06 04:15:37;;;;;;;9.80;6.88;;;5.50;99.90;;;5.24;100.00;101251.00;4890168;29;20631;-69
2022/11/06 04:18:17;;;;;;;8.70;5.97;;;5.40;99.90;;;5.33;100.00;101244.66;4877343;29;20194;-69
2022/11/06 04:27:23;;;;;;;12.07;7.03;;;5.60;99.90;;;5.34;100.00;101241.00;4877081;29;20317;-70
2022/11/06 04:30:08;;;;;;;14.48;6.70;;;5.50;99.90;;;5.37;100.00;101245.22;4879692;29;20550;-70
2022/11/06 04:33:03;;;;;;;13.18;8.02;;;5.50;99.90;;;5.19;100.00;101242.56;4891138;29;20224;-69
2022/11/06 04:35:49;;;;;;;10.48;5.93;;;5.40;99.90;;;5.27;100.00;101245.34;4899764;29;20218;-71
2022/11/06 04:38:36;;;;;;;8.85;6.38;;;5.40;99.90;;;5.27;100.00;101248.00;4882883;29;20213;-70
2022/11/06 04:41:18;;;;;;;12.15;7.60;;;5.40;99.90;;;5.26;100.00;101246.31;4909733;29;20197;-70
2022/11/06 04:43:54;;;;;;;21.15;7.03;;;5.40;99.90;;;5.26;100.00;101246.31;4903947;29;20236;-70
2022/11/06 04:46:30;;;;;;;9.25;6.45;;;5.40;99.90;;;5.35;100.00;101241.84;4881656;29;20602;-70
2022/11/06 04:49:02;;;;;;;8.75;6.75;;;5.50;99.90;;;5.29;100.00;101251.34;4876674;29;20171;-68
2022/11/06 04:51:37;;;;;;;13.80;6.97;;;5.40;99.90;;;5.22;100.00;101244.97;4876400;29;20175;-69
2022/11/06 04:54:10;;;;;;;7.40;6.40;;;5.40;99.90;;;5.29;100.00;101247.81;4876709;29;20198;-69
2022/11/06 04:56:39;;;;;;;13.93;8.05;;;5.40;99.90;;;5.14;100.00;101247.56;4886548;29;20224;-68
2022/11/06 04:59:17;;;;;;;8.27;6.38;;;5.30;99.90;;;5.15;100.00;101239.38;4877093;29;20642;-69
2022/11/06 05:01:46;;;;;;;8.68;6.85;;;5.30;99.90;;;5.16;100.00;101234.84;4876627;29;20250;-69
2022/11/06 05:04:15;;;;;;;12.93;6.65;;;5.30;99.90;;;5.19;100.00;101234.53;4882408;29;20205;-68
2022/11/06 05:06:46;;;;;;;13.35;7.55;;;5.30;99.90;;;5.16;100.00;101229.50;4876868;29;20408;-69
2022/11/06 05:09:14;;;;;;;11.43;7.22;;;5.30;99.90;;;5.00;100.00;101227.53;4879750;29;20277;-70
2022/11/06 05:11:43;;;;;;;17.95;7.10;;;5.20;99.90;;;4.93;100.00;101228.34;4877627;29;20229;-70
2022/11/06 05:14:12;;;;;;;10.05;6.80;;;5.20;99.90;;;4.95;100.00;101227.19;4909041;29;20284;-69
2022/11/06 05:16:41;;;;;;;12.52;7.97;;;5.10;99.90;;;5.03;100.00;101229.09;4895567;29;20234;-69
2022/11/06 05:19:10;;;;;;;11.07;6.53;;;5.20;99.90;;;5.07;100.00;101230.44;4882655;29;20208;-69
2022/11/06 05:24:27;;;;;;;11.07;6.80;;;5.20;99.90;;;4.97;100.00;101235.91;4889177;29;20199;-69
2022/11/06 05:26:55;;;;;;;12.63;8.30;;;5.10;99.90;;;4.88;100.00;101230.66;4890276;29;20261;-68
2022/11/06 05:29:28;;;;;;;8.77;7.18;;;5.10;99.90;;;4.99;100.00;101227.69;4876608;29;20242;-68
2022/11/06 05:31:57;;;;;;;12.10;6.22;;;5.10;99.90;;;4.85;100.00;101236.31;4890723;29;20198;-70
2022/11/06 05:34:26;;;;;;;9.00;7.50;;;5.10;99.90;;;4.90;100.00;101234.00;4895884;29;20200;-68
2022/11/06 05:36:55;;;;;;;9.98;7.25;;;5.10;99.90;;;4.83;100.00;101233.81;4882713;29;20230;-68
2022/11/06 05:39:24;;;;;;;9.25;7.28;;;5.00;99.90;;;4.80;100.00;101232.28;4893084;29;20201;-68
2022/11/06 05:42:58;;;;;;;11.15;7.25;;;5.00;99.90;;;4.88;100.00;101225.28;4888894;29;20217;-68
2022/11/06 05:45:28;;;;;;;10.50;5.78;;;5.00;99.90;;;4.88;100.00;101219.94;4895618;29;20717;-71
2022/11/06 05:47:57;;;;;;;11.93;7.18;;;5.00;99.90;;;4.88;100.00;101226.13;4898146;29;20234;-70
2022/11/06 05:50:26;;;;;;;8.38;6.53;;;5.00;99.90;;;4.87;100.00;101229.81;4889996;29;20198;-68
2022/11/06 05:52:55;;;;;;;13.77;7.93;;;5.00;99.90;;;4.94;100.00;101235.41;4888268;29;20205;-68
2022/11/06 05:55:24;;;;;;;11.93;7.55;;;5.10;99.90;;;4.98;100.00;101234.09;4898784;29;20194;-69
2022/11/06 05:57:53;;;;;;;10.73;7.38;;;5.10;99.90;;;4.86;100.00;101235.31;4894298;29;20194;-68
2022/11/06 06:00:22;;;;;;;11.60;7.15;;;5.10;99.90;;;4.96;100.00;101228.03;4897488;29;20206;-69
2022/11/06 06:02:52;;;;;;;12.73;8.07;;;5.10;99.90;;;4.97;100.00;101240.44;4913301;29;20289;-70
2022/11/06 06:05:21;;;;;;;11.13;6.47;;;5.10;99.90;;;4.82;100.00;101229.44;4887358;29;20211;-69
2022/11/06 06:07:50;;;;;;;13.18;7.47;;;5.00;99.90;;;4.87;100.00;101231.66;4894164;29;20245;-69
2022/11/06 06:10:19;;;;;;;13.10;7.97;;;5.00;99.90;;;4.82;100.00;101227.59;4907093;29;20216;-70
2022/11/06 06:12:50;;;;;;;15.90;7.20;;;5.00;99.90;;;4.92;100.00;101229.34;4883526;29;20668;-69
2022/11/06 06:15:19;;;;;;;15.35;7.22;;;5.00;99.90;;;4.84;100.00;101232.81;4895294;29;20185;-70
2022/11/06 06:17:47;;;;;;;10.95;7.35;;;5.00;99.90;;;4.79;100.00;101227.91;4905727;29;20193;-70
2022/11/06 06:20:18;;;;;;;10.93;6.70;;;5.00;99.90;;;4.80;100.00;101228.75;4915996;29;20213;-70
2022/11/06 06:22:54;;;;;;;10.75;6.78;;;5.00;99.90;;;4.88;100.00;101227.97;4903913;29;20343;-69
2022/11/06 06:25:23;;;;;;;10.60;7.38;;;5.00;99.90;;;4.96;100.00;101228.03;4911854;29;20213;-68
2022/11/06 06:27:53;;;;;;;12.38;7.22;;;5.00;99.90;;;4.93;100.00;101233.72;4878519;29;20190;-69
2022/11/06 06:30:22;;;;;;;12.25;6.47;;;5.10;99.90;;;4.91;100.00;101233.00;4886711;29;20201;-69
2022/11/06 06:32:52;;;;;;;11.70;7.93;;;5.10;99.90;;;4.99;100.00;101238.41;4890493;29;20209;-69
2022/11/06 06:35:22;;;;;;;16.38;7.15;;;5.10;99.90;;;5.14;100.00;101236.84;4878737;29;20180;-70
2022/11/06 06:37:53;;;;;;;17.92;7.70;;;5.20;99.90;;;5.11;100.00;101248.75;4878488;29;20250;-68
2022/11/06 06:40:22;;;;;;;13.82;7.50;;;5.20;99.90;;;5.11;100.00;101243.38;4878418;29;20206;-70
2022/11/06 06:42:51;;;;;;;11.52;7.25;;;5.20;99.90;;;5.09;100.00;101244.53;4878375;29;20190;-70
2022/11/06 06:45:20;;;;;;;15.38;8.50;;;5.20;99.90;;;5.24;99.84;101249.16;4886022;29;20197;-69
2022/11/06 06:47:49;;;;;;;10.38;7.75;;;5.30;99.90;;;5.20;99.94;101257.69;4897872;29;20202;-69
2022/11/06 06:50:18;;;;;;;13.05;7.65;;;5.30;99.90;;;5.22;99.64;101255.69;4914224;29;20663;-69
2022/11/06 06:52:49;;;;;;;8.90;7.22;;;5.30;99.90;;;5.17;99.76;101250.81;4909580;29;20289;-70
2022/11/06 06:55:17;;;;;;;15.05;7.20;;;5.30;99.90;;;5.30;99.60;101260.25;4890144;29;20194;-69
2022/11/06 06:57:46;;;;;;;10.15;7.28;;;5.30;99.90;;;5.30;99.23;101252.19;4885404;29;20289;-70
2022/11/06 07:00:16;;;;;;;9.48;7.70;;;5.40;99.90;;;5.41;98.75;101250.09;4896019;29;20263;-73
2022/11/06 07:02:45;;;;;;;12.27;7.68;;;5.40;99.90;;;5.37;98.92;101247.91;4878685;29;20717;-69
2022/11/06 07:05:13;;;;;;;19.00;7.57;;;5.40;99.90;;;5.50;97.84;101254.50;4880966;29;20194;-70
2022/11/06 07:07:43;;;;;;;15.93;7.25;;;5.50;99.90;;;5.58;97.55;101246.47;4900989;29;20217;-68
2022/11/06 07:10:13;;;;;;;12.18;6.85;;;5.60;99.90;;;5.67;97.50;101250.03;4898365;29;20316;-68
2022/11/06 07:12:42;;;;;;;11.68;8.45;;;5.70;99.90;;;5.85;96.45;101258.00;4882001;29;20229;-70
2022/11/06 07:15:11;;;;;;;14.55;7.80;;;5.80;99.90;;;6.09;94.53;101252.72;4910766;29;20200;-71
2022/11/06 07:17:40;;;;;;;9.75;6.50;;;6.00;99.90;;;6.13;94.12;101246.03;4910351;29;20543;-69
2022/11/06 07:20:11;;;;;;;15.07;7.75;;;6.00;99.90;;;6.35;92.44;101249.91;4906001;29;20202;-71
2022/11/06 07:22:39;;;;;;;8.65;6.43;;;6.20;99.90;;;6.44;91.75;101252.44;4895380;29;20551;-69
2022/11/06 07:25:42;;;;;;;13.43;7.03;;;6.30;99.90;;;6.43;91.45;101253.47;4881005;29;20278;-73
2022/11/06 07:28:13;;;;;;;9.88;7.05;;;6.30;99.90;;;6.50;91.17;101246.41;4837459;29;20211;-70
2022/11/06 07:30:42;;;;;;;13.27;6.90;;;6.40;99.90;;;6.62;90.66;101248.75;4841021;29;20248;-69
2022/11/06 07:33:11;;;;;;;8.80;6.75;;;6.50;99.90;;;6.61;90.39;101245.22;4821069;29;20303;-71
2022/11/06 07:35:40;;;;;;;8.95;6.25;;;6.50;99.90;;;6.76;89.87;101257.00;4821724;29;20240;-73
2022/11/06 07:38:09;;;;;;;13.70;7.40;;;6.60;99.90;;;6.84;89.53;101246.22;4822208;29;20197;-71
2022/11/06 07:40:38;;;;;;;11.80;7.15;;;6.70;99.90;;;6.89;88.79;101249.25;4821663;29;20208;-69
2022/11/06 07:43:10;;;;;;;11.52;7.18;;;6.80;99.90;;;6.95;88.66;101245.88;4840907;29;20757;-69
2022/11/06 07:45:40;;;;;;;13.73;7.18;;;6.90;99.90;;;6.98;87.76;101248.22;4840039;29;20264;-69
2022/11/06 07:48:09;;;;;;;13.15;7.05;;;6.90;99.90;;;6.97;88.05;101245.72;4840833;29;20196;-70
2022/11/06 07:50:38;;;;;;;8.82;6.65;;;6.90;99.90;;;6.94;88.17;101243.34;4845601;29;20667;-70
2022/11/06 07:53:07;;;;;;;14.20;8.00;;;6.90;99.90;;;7.02;88.09;101245.22;4858761;29;20204;-71
2022/11/06 07:55:36;;;;;;;9.07;5.63;;;6.90;99.90;;;7.01;87.88;101255.13;4858267;29;20303;-72
2022/11/06 07:58:10;;;;;;;9.43;8.25;;;7.00;99.90;;;7.15;87.28;101258.97;4859243;29;20217;-69
2022/11/06 08:00:41;;;;;;;9.70;8.10;;;7.00;99.90;;;7.14;87.48;101250.06;4858691;29;20200;-70
2022/11/06 08:03:09;;;;;;;10.00;6.82;;;7.10;99.90;;;7.28;87.04;101249.34;4858095;29;20191;-69
2022/11/06 08:05:38;;;;;;;11.50;7.40;;;7.20;99.90;;;7.32;85.82;101245.28;4858006;29;20233;-70
2022/11/06 08:08:07;;;;;;;7.70;6.90;;;7.30;99.90;;;7.42;85.69;101240.56;4842990;29;20279;-69
2022/11/06 08:10:39;;;;;;;13.18;6.25;;;7.30;99.90;;;7.54;85.83;101245.59;4840268;29;20564;-70
2022/11/06 08:13:08;;;;;;;9.73;7.20;;;7.40;99.90;;;7.63;84.61;101241.84;4840015;29;20248;-69
2022/11/06 08:15:41;;;;;;;9.07;6.07;;;7.50;99.90;;;7.76;84.99;101242.94;4822825;29;20231;-69
2022/11/06 08:18:12;;;;;;;10.02;7.32;;;7.60;99.90;;;7.79;84.21;101236.38;4839095;29;20550;-69
2022/11/06 08:20:42;;;;;;;11.70;7.55;;;7.70;99.90;;;7.64;84.27;101219.28;4836193;29;20663;-69
2022/11/06 08:23:13;;;;;;;9.45;6.40;;;7.60;99.90;;;7.66;84.18;101225.31;4840249;29;20585;-69
2022/11/06 08:25:42;;;;;;;11.82;6.93;;;7.60;99.90;;;7.80;83.58;101224.56;4839825;29;20588;-71
2022/11/06 08:28:11;;;;;;;10.00;7.60;;;7.70;99.90;;;7.82;83.43;101223.41;4839983;29;20299;-69
2022/11/06 08:30:42;;;;;;;8.10;7.25;;;7.70;99.90;;;8.02;82.88;101226.50;4839908;29;20206;-70
2022/11/06 08:33:11;;;;;;;13.13;7.53;;;7.80;99.90;;;8.08;82.68;101231.19;4839995;29;20180;-70
2022/11/06 08:35:40;;;;;;;21.15;6.57;;;7.90;99.90;;;8.21;81.66;101236.81;4839742;29;20264;-70
2022/11/06 08:38:09;;;;;;;11.30;7.45;;;8.10;99.90;;;8.13;81.79;101222.56;4823396;29;20294;-71
2022/11/06 08:40:39;;;;;;;13.15;7.40;;;8.10;99.90;;;8.16;81.73;101220.34;4839793;29;20196;-71
2022/11/06 08:43:10;;;;;;;10.82;6.80;;;8.10;99.90;;;8.25;81.33;101210.31;4839676;29;20227;-69
2022/11/06 08:45:43;;;;;;;11.93;8.65;;;8.10;99.90;;;8.35;81.29;101215.50;4840157;29;20283;-70
2022/11/06 08:48:12;;;;;;;9.07;6.43;;;8.20;99.90;;;8.31;81.04;101208.81;4839742;29;20196;-71
2022/11/06 08:50:41;;;;;;;9.13;6.70;;;8.20;99.90;;;8.44;80.76;101209.03;4839984;29;20208;-69
2022/11/06 08:53:11;;;;;;;10.85;7.00;;;8.30;99.90;;;8.60;80.32;101203.50;4840103;29;20232;-70
2022/11/06 08:55:40;;;;;;;10.80;6.88;;;8.50;99.90;;;8.48;80.27;101210.34;4840349;29;20219;-71
2022/11/06 08:58:09;;;;;;;10.93;7.37;;;8.40;99.90;;;8.63;79.96;101208.53;4840552;29;20192;-69
2022/11/06 09:00:43;;;;;;;8.80;6.90;;;8.50;99.90;;;8.67;80.34;101212.53;4841264;29;20443;-71
2022/11/06 09:03:16;;;;;;;9.20;7.00;;;8.50;99.90;;;8.67;80.04;101212.53;4842632;29;20532;-70
2022/11/06 09:05:46;;;;;;;11.00;7.83;;;8.60;99.90;;;8.97;79.37;101216.16;4843330;29;20461;-71
2022/11/06 09:08:16;;;;;;;8.87;6.30;;;8.70;99.90;;;8.94;77.96;101211.97;4844777;29;20512;-72
2022/11/06 09:10:45;;;;;;;8.60;6.70;;;8.80;99.90;;;8.93;78.31;101213.00;4843025;29;20407;-71
2022/11/06 09:13:14;;;;;;;11.50;6.43;;;8.80;99.90;;;9.10;78.62;101206.38;4826317;29;20480;-70
2022/11/06 09:15:45;;;;;;;12.00;7.03;;;8.90;99.90;;;9.14;77.40;101205.00;4843311;29;20432;-70
2022/11/06 09:18:14;;;;;;;9.57;7.23;;;9.00;99.90;;;9.05;77.24;101198.00;4841509;29;20452;-71
2022/11/06 09:20:43;;;;;;;14.17;7.50;;;9.00;99.90;;;9.25;76.72;101202.84;4841214;29;20412;-71
2022/11/06 09:23:12;;;;;;;12.33;7.77;;;9.10;99.90;;;9.43;76.83;101203.34;4844449;29;20419;-71
2022/11/06 09:25:41;;;;;;;9.37;7.30;;;9.20;99.90;;;9.41;76.85;101198.09;4844536;29;20517;-70
2022/11/06 09:28:10;;;;;;;11.93;7.13;;;9.30;99.90;;;9.60;75.82;101197.53;4843284;29;20469;-71
2022/11/06 09:30:39;;;;;;;11.43;5.97;;;9.40;99.90;;;9.66;75.46;101201.34;4842399;29;20448;-70
2022/11/06 09:33:10;;;;;;;10.75;7.82;;;9.50;99.90;;;9.72;74.83;101197.91;4843371;29;20780;-70
2022/11/06 09:35:42;;;;;;;8.90;6.20;;;9.60;99.90;;;9.58;75.11;101202.28;4842943;29;20230;-68
2022/11/06 09:38:14;;;;;;;7.87;7.10;;;9.50;99.90;;;9.69;75.26;101205.53;4841826;29;20440;-69
2022/11/06 09:40:51;;;;;;;11.73;6.57;;;9.60;99.90;;;9.74;74.93;101214.75;4842944;29;20437;-72
2022/11/06 09:43:52;;;;;;;11.13;6.87;;;9.60;99.90;;;9.72;74.77;101210.56;4843079;29;20446;-72
2022/11/06 09:46:44;;;;;;;7.67;5.70;;;9.60;99.90;;;9.80;74.05;101205.03;4843198;29;20956;-70
2022/11/06 09:49:22;;;;;;;8.40;5.17;;;9.70;99.90;;;9.86;74.04;101199.72;4843039;29;20507;-70
2022/11/06 09:52:03;;;;;;;15.80;6.93;;;9.70;99.90;;;9.84;74.50;101209.03;4843934;29;20440;-72
2022/11/06 09:54:42;;;;;;;11.97;7.43;;;9.70;99.90;;;10.07;73.25;101209.72;4827804;29;20876;-71
2022/11/06 09:57:21;;;;;;;10.40;5.83;;;9.90;99.90;;;10.06;73.47;101205.38;4825599;29;20450;-72
2022/11/06 09:59:51;;;;;;;11.60;7.53;;;9.90;99.90;;;10.10;73.31;101205.81;4823898;29;20947;-71
2022/11/06 10:02:30;;;;;;;8.47;6.83;;;9.90;99.90;;;10.03;72.97;101208.44;4834137;29;20447;-70
2022/11/06 10:05:13;;;;;;;9.60;6.10;;;9.90;99.90;;;10.06;73.34;101209.94;4843570;29;20448;-70
2022/11/06 10:07:44;;;;;;;7.70;6.23;;;9.90;99.90;;;10.07;72.90;101200.81;4843314;29;20998;-71
2022/11/06 10:10:18;;;;;;;11.20;7.17;;;9.90;99.90;;;10.02;73.35;101194.06;4845201;29;20959;-72
2022/11/06 10:13:14;;;;;;;8.30;5.70;;;9.90;99.90;;;10.09;72.85;101193.31;4845855;29;20491;-71
2022/11/06 10:15:58;;;;;;;9.73;6.20;;;9.90;99.90;;;9.95;73.12;101190.47;4846152;29;20460;-73
2022/11/06 10:18:48;;;;;;;15.30;6.13;;;9.90;99.90;;;10.21;73.29;101189.97;4846860;29;20428;-73
2022/11/06 10:21:25;;;;;;;8.90;5.80;;;10.00;99.90;;;10.58;72.13;101190.72;4844560;29;20445;-73
2022/11/06 10:23:59;;;;;;;8.13;5.30;;;10.30;99.90;;;10.53;70.98;101183.19;4856487;29;20811;-71
2022/11/06 10:26:39;;;;;;;13.80;5.70;;;10.40;99.90;;;10.56;71.47;101171.94;4826849;29;20492;-72
2022/11/06 10:29:45;;;;;;;11.30;5.10;;;10.40;99.90;;;10.84;71.52;101175.50;4843250;29;20460;-72
2022/11/06 10:32:48;;;;;;;6.60;5.13;;;10.60;99.90;;;10.93;70.32;101167.25;4841394;29;20482;-72
2022/11/06 10:35:23;;;;;;;8.60;5.73;;;10.70;99.90;;;10.95;69.68;101165.16;4842119;29;20407;-72
2022/11/06 10:38:01;;;;;;;13.10;7.03;;;10.80;99.30;;;10.94;70.08;101163.50;4842314;29;20421;-72
2022/11/06 10:40:33;;;;;;;7.60;5.10;;;10.80;99.30;;;10.87;69.98;101160.75;4841961;29;21022;-71
2022/11/06 10:43:17;;;;;;;6.00;5.40;;;10.80;98.80;;;10.82;70.05;101157.81;4842171;29;20851;-70
2022/11/06 10:45:52;;;;;;;15.80;6.53;;;10.70;99.10;;;10.76;69.86;101145.03;4842304;29;20471;-71
2022/11/06 10:48:29;;;;;;;11.60;6.80;;;10.70;98.50;;;10.73;70.42;101146.28;4842224;29;20457;-71
2022/11/06 10:51:24;;;;;;;9.10;4.43;;;10.60;99.50;;;10.64;70.61;101136.66;4825673;29;20865;-70
2022/11/06 10:54:13;;;;;;;6.83;5.53;;;10.50;99.20;;;10.95;69.72;101138.94;4849097;29;20928;-71
2022/11/06 10:57:04;;;;;;;10.07;7.33;;;10.70;99.70;;;11.24;69.89;101137.84;4860581;29;20533;-72
2022/11/06 10:59:34;;;;;;;14.33;5.90;;;10.90;99.70;;;11.10;69.06;101125.25;4841977;29;20433;-72
2022/11/06 11:02:04;;;;;;;8.27;5.40;;;10.90;97.80;;;11.14;69.10;101124.66;4842492;29;20541;-71